sensor_id;sensor_type;location;lat;lon;timestamp;pressure;altitude;pressure_sealevel;temperature;humidity
80682;BME280;70045;40.200;44.582;2023-07-08T00:01:19;85857.19;;;23.47;40.17
80682;BME280;70045;40.200;44.582;2023-07-08T00:03:45;85852.94;;;23.38;40.27
80682;BME280;70045;40.200;44.582;2023-07-08T00:06:26;85854.09;;;23.43;40.31
80682;BME280;70045;40.200;44.582;2023-07-08T00:08:52;85851.72;;;23.39;40.64
80682;BME280;70045;40.200;44.582;2023-07-08T00:11:18;85842.66;;;23.29;40.92
80682;BME280;70045;40.200;44.582;2023-07-08T00:13:44;85845.09;;;23.21;42.03
80682;BME280;70045;40.200;44.582;2023-07-08T00:16:10;85837.63;;;23.25;40.95
80682;BME280;70045;40.200;44.582;2023-07-08T00:19:24;85836.69;;;23.23;42.06
80682;BME280;70045;40.200;44.582;2023-07-08T00:21:50;85830.44;;;23.20;41.47
80682;BME280;70045;40.200;44.582;2023-07-08T00:24:15;85829.94;;;23.22;41.56
80682;BME280;70045;40.200;44.582;2023-07-08T00:26:41;85831.41;;;23.23;41.42
80682;BME280;70045;40.200;44.582;2023-07-08T00:29:09;85832.09;;;23.23;41.39
80682;BME280;70045;40.200;44.582;2023-07-08T00:31:44;85829.50;;;23.18;41.88
80682;BME280;70045;40.200;44.582;2023-07-08T00:34:09;85827.88;;;22.98;42.72
80682;BME280;70045;40.200;44.582;2023-07-08T00:36:35;85823.59;;;22.89;42.44
80682;BME280;70045;40.200;44.582;2023-07-08T00:39:00;85822.38;;;22.90;42.28
80682;BME280;70045;40.200;44.582;2023-07-08T00:41:37;85819.72;;;22.96;42.26
80682;BME280;70045;40.200;44.582;2023-07-08T00:44:13;85816.38;;;22.95;41.42
80682;BME280;70045;40.200;44.582;2023-07-08T00:47:02;85823.28;;;22.98;41.62
80682;BME280;70045;40.200;44.582;2023-07-08T00:52:21;85826.19;;;23.00;40.66
80682;BME280;70045;40.200;44.582;2023-07-08T00:54:57;85823.03;;;23.02;40.20
80682;BME280;70045;40.200;44.582;2023-07-08T00:57:28;85819.66;;;23.07;40.35
80682;BME280;70045;40.200;44.582;2023-07-08T01:00:01;85818.44;;;23.13;40.05
80682;BME280;70045;40.200;44.582;2023-07-08T01:02:27;85821.09;;;23.13;39.97
80682;BME280;70045;40.200;44.582;2023-07-08T01:05:05;85817.22;;;23.20;40.06
80682;BME280;70045;40.200;44.582;2023-07-08T01:07:33;85822.22;;;23.24;39.82
80682;BME280;70045;40.200;44.582;2023-07-08T01:10:06;85814.53;;;23.26;39.98
80682;BME280;70045;40.200;44.582;2023-07-08T01:12:39;85822.72;;;23.28;39.85
80682;BME280;70045;40.200;44.582;2023-07-08T01:15:16;85825.09;;;23.26;39.74
80682;BME280;70045;40.200;44.582;2023-07-08T01:17:45;85816.94;;;23.24;39.94
80682;BME280;70045;40.200;44.582;2023-07-08T01:20:11;85817.91;;;23.21;39.68
80682;BME280;70045;40.200;44.582;2023-07-08T01:22:37;85813.63;;;23.18;39.60
80682;BME280;70045;40.200;44.582;2023-07-08T01:25:03;85815.78;;;23.13;40.14
80682;BME280;70045;40.200;44.582;2023-07-08T01:27:36;85813.16;;;23.13;40.03
80682;BME280;70045;40.200;44.582;2023-07-08T01:30:04;85811.25;;;23.08;39.82
80682;BME280;70045;40.200;44.582;2023-07-08T01:32:31;85805.03;;;23.00;39.74
80682;BME280;70045;40.200;44.582;2023-07-08T01:34:59;85815.13;;;22.96;40.29
80682;BME280;70045;40.200;44.582;2023-07-08T01:37:37;85816.38;;;22.89;40.21
80682;BME280;70045;40.200;44.582;2023-07-08T01:42:46;85819.50;;;22.88;40.13
80682;BME280;70045;40.200;44.582;2023-07-08T01:45:14;85823.59;;;22.89;40.28
80682;BME280;70045;40.200;44.582;2023-07-08T01:47:41;85819.00;;;22.95;40.26
80682;BME280;70045;40.200;44.582;2023-07-08T01:50:19;85827.16;;;22.97;39.80
80682;BME280;70045;40.200;44.582;2023-07-08T01:52:45;85836.28;;;22.96;39.92
80682;BME280;70045;40.200;44.582;2023-07-08T01:55:11;85828.13;;;22.94;40.22
80682;BME280;70045;40.200;44.582;2023-07-08T01:57:36;85841.56;;;22.96;40.17
80682;BME280;70045;40.200;44.582;2023-07-08T02:00:02;85838.94;;;22.96;40.48
80682;BME280;70045;40.200;44.582;2023-07-08T02:02:36;85831.97;;;22.99;40.81
80682;BME280;70045;40.200;44.582;2023-07-08T02:05:01;85840.59;;;22.99;40.32
80682;BME280;70045;40.200;44.582;2023-07-08T02:07:26;85837.72;;;22.97;40.44
80682;BME280;70045;40.200;44.582;2023-07-08T02:09:52;85825.50;;;22.88;40.28
80682;BME280;70045;40.200;44.582;2023-07-08T02:12:17;85835.59;;;22.90;40.99
80682;BME280;70045;40.200;44.582;2023-07-08T02:14:52;85828.13;;;22.94;41.23
80682;BME280;70045;40.200;44.582;2023-07-08T02:17:17;85829.81;;;22.97;41.08
80682;BME280;70045;40.200;44.582;2023-07-08T02:19:43;85830.00;;;23.05;40.95
80682;BME280;70045;40.200;44.582;2023-07-08T02:22:09;85829.53;;;23.06;40.95
80682;BME280;70045;40.200;44.582;2023-07-08T02:24:34;85829.28;;;23.10;40.75
80682;BME280;70045;40.200;44.582;2023-07-08T02:27:09;85830.00;;;23.10;40.90
80682;BME280;70045;40.200;44.582;2023-07-08T02:29:34;85823.75;;;23.08;40.59
80682;BME280;70045;40.200;44.582;2023-07-08T02:31:59;85818.00;;;23.04;41.04
80682;BME280;70045;40.200;44.582;2023-07-08T02:34:25;85827.13;;;23.14;40.78
80682;BME280;70045;40.200;44.582;2023-07-08T02:36:50;85829.72;;;23.20;40.43
80682;BME280;70045;40.200;44.582;2023-07-08T02:39:25;85817.66;;;23.24;40.90
80682;BME280;70045;40.200;44.582;2023-07-08T02:41:50;85825.56;;;23.30;40.59
80682;BME280;70045;40.200;44.582;2023-07-08T02:44:15;85829.63;;;23.37;40.43
80682;BME280;70045;40.200;44.582;2023-07-08T02:46:41;85831.50;;;23.47;40.55
80682;BME280;70045;40.200;44.582;2023-07-08T02:49:06;85829.28;;;23.52;40.35
80682;BME280;70045;40.200;44.582;2023-07-08T02:51:41;85829.97;;;23.58;40.93
80682;BME280;70045;40.200;44.582;2023-07-08T02:54:06;85838.59;;;23.64;40.97
80682;BME280;70045;40.200;44.582;2023-07-08T02:56:32;85842.63;;;23.71;40.54
80682;BME280;70045;40.200;44.582;2023-07-08T02:58:57;85841.44;;;23.72;40.92
80682;BME280;70045;40.200;44.582;2023-07-08T03:01:22;85844.56;;;23.70;40.77
80682;BME280;70045;40.200;44.582;2023-07-08T03:03:57;85838.81;;;23.66;41.18
80682;BME280;70045;40.200;44.582;2023-07-08T03:06:22;85840.69;;;23.71;40.46
80682;BME280;70045;40.200;44.582;2023-07-08T03:08:48;85849.53;;;23.79;40.40
80682;BME280;70045;40.200;44.582;2023-07-08T03:11:18;85850.75;;;23.84;40.51
80682;BME280;70045;40.200;44.582;2023-07-08T03:13:43;85859.56;;;23.92;40.47
80682;BME280;70045;40.200;44.582;2023-07-08T03:16:18;85856.63;;;24.01;41.04
80682;BME280;70045;40.200;44.582;2023-07-08T03:18:43;85857.78;;;24.06;39.80
80682;BME280;70045;40.200;44.582;2023-07-08T03:21:08;85855.13;;;24.12;39.37
80682;BME280;70045;40.200;44.582;2023-07-08T03:23:34;85857.97;;;24.14;39.79
80682;BME280;70045;40.200;44.582;2023-07-08T03:25:59;85847.66;;;24.10;40.29
80682;BME280;70045;40.200;44.582;2023-07-08T03:28:34;85848.38;;;24.11;39.76
80682;BME280;70045;40.200;44.582;2023-07-08T03:30:59;85851.50;;;24.09;39.84
80682;BME280;70045;40.200;44.582;2023-07-08T03:33:24;85853.44;;;24.09;39.53
80682;BME280;70045;40.200;44.582;2023-07-08T03:35:50;85852.69;;;24.14;39.10
80682;BME280;70045;40.200;44.582;2023-07-08T03:38:15;85844.25;;;24.15;38.95
80682;BME280;70045;40.200;44.582;2023-07-08T03:40:50;85853.53;;;24.28;38.91
80682;BME280;70045;40.200;44.582;2023-07-08T03:43:15;85857.09;;;24.36;38.80
80682;BME280;70045;40.200;44.582;2023-07-08T03:45:41;85861.06;;;24.48;38.71
80682;BME280;70045;40.200;44.582;2023-07-08T03:48:09;85863.88;;;24.56;37.68
80682;BME280;70045;40.200;44.582;2023-07-08T03:50:35;85863.19;;;24.55;38.53
80682;BME280;70045;40.200;44.582;2023-07-08T03:53:10;85859.91;;;24.68;38.35
80682;BME280;70045;40.200;44.582;2023-07-08T03:55:35;85848.50;;;24.79;38.51
80682;BME280;70045;40.200;44.582;2023-07-08T03:58:00;85856.09;;;24.88;38.03
80682;BME280;70045;40.200;44.582;2023-07-08T04:00:26;85852.69;;;24.93;37.43
80682;BME280;70045;40.200;44.582;2023-07-08T04:02:51;85850.66;;;24.99;37.88
80682;BME280;70045;40.200;44.582;2023-07-08T04:05:26;85840.91;;;24.89;37.64
80682;BME280;70045;40.200;44.582;2023-07-08T04:07:51;85856.13;;;25.07;37.38
80682;BME280;70045;40.200;44.582;2023-07-08T04:10:16;85858.28;;;25.09;37.41
80682;BME280;70045;40.200;44.582;2023-07-08T04:12:42;85862.16;;;25.08;37.83
80682;BME280;70045;40.200;44.582;2023-07-08T04:15:09;85858.44;;;25.16;37.41
80682;BME280;70045;40.200;44.582;2023-07-08T04:17:48;85840.66;;;25.11;37.30
80682;BME280;70045;40.200;44.582;2023-07-08T04:20:16;85857.84;;;25.24;37.13
80682;BME280;70045;40.200;44.582;2023-07-08T04:22:41;85850.31;;;25.33;37.37
80682;BME280;70045;40.200;44.582;2023-07-08T04:25:07;85854.25;;;25.46;36.24
80682;BME280;70045;40.200;44.582;2023-07-08T04:27:33;85848.44;;;25.47;35.42
80682;BME280;70045;40.200;44.582;2023-07-08T04:30:17;85842.53;;;25.54;34.66
80682;BME280;70045;40.200;44.582;2023-07-08T04:44:05;85839.41;;;26.07;33.59
80682;BME280;70045;40.200;44.582;2023-07-08T04:46:41;85840.34;;;26.10;34.13
80682;BME280;70045;40.200;44.582;2023-07-08T04:49:08;85831.44;;;26.07;33.79
80682;BME280;70045;40.200;44.582;2023-07-08T04:51:34;85840.25;;;26.16;34.84
80682;BME280;70045;40.200;44.582;2023-07-08T04:53:59;85825.94;;;26.19;34.79
80682;BME280;70045;40.200;44.582;2023-07-08T04:59:05;85826.59;;;26.38;34.13
80682;BME280;70045;40.200;44.582;2023-07-08T05:01:31;85828.88;;;26.47;33.98
80682;BME280;70045;40.200;44.582;2023-07-08T05:03:57;85823.56;;;26.61;33.91
80682;BME280;70045;40.200;44.582;2023-07-08T05:06:22;85825.63;;;26.68;33.79
80682;BME280;70045;40.200;44.582;2023-07-08T05:08:58;85831.34;;;26.85;33.37
80682;BME280;70045;40.200;44.582;2023-07-08T05:11:24;85816.03;;;26.92;33.34
80682;BME280;70045;40.200;44.582;2023-07-08T05:13:50;85809.38;;;26.98;32.78
80682;BME280;70045;40.200;44.582;2023-07-08T05:16:15;85813.25;;;27.11;32.96
80682;BME280;70045;40.200;44.582;2023-07-08T05:18:41;85787.97;;;27.04;32.67
80682;BME280;70045;40.200;44.582;2023-07-08T05:21:15;85804.66;;;27.31;31.89
80682;BME280;70045;40.200;44.582;2023-07-08T05:23:41;85803.72;;;27.29;32.12
80682;BME280;70045;40.200;44.582;2023-07-08T05:26:07;85788.53;;;27.23;31.64
80682;BME280;70045;40.200;44.582;2023-07-08T05:28:33;85789.78;;;27.22;30.85
80682;BME280;70045;40.200;44.582;2023-07-08T05:30:58;85788.16;;;27.33;32.22
80682;BME280;70045;40.200;44.582;2023-07-08T05:33:33;85784.84;;;27.53;30.92
80682;BME280;70045;40.200;44.582;2023-07-08T05:36:00;85777.28;;;27.65;31.96
80682;BME280;70045;40.200;44.582;2023-07-08T05:38:26;85774.72;;;27.73;31.69
80682;BME280;70045;40.200;44.582;2023-07-08T05:40:58;85777.63;;;27.83;30.58
80682;BME280;70045;40.200;44.582;2023-07-08T05:43:24;85775.97;;;27.93;31.40
80682;BME280;70045;40.200;44.582;2023-07-08T05:46:00;85768.97;;;28.03;30.99
80682;BME280;70045;40.200;44.582;2023-07-08T05:48:26;85756.09;;;28.15;31.01
80682;BME280;70045;40.200;44.582;2023-07-08T05:50:52;85763.69;;;28.32;30.56
80682;BME280;70045;40.200;44.582;2023-07-08T05:53:19;85762.50;;;28.41;30.47
80682;BME280;70045;40.200;44.582;2023-07-08T05:55:44;85758.66;;;28.49;29.97
80682;BME280;70045;40.200;44.582;2023-07-08T05:58:19;85753.97;;;28.42;29.63
80682;BME280;70045;40.200;44.582;2023-07-08T06:00:45;85753.25;;;28.42;30.70
80682;BME280;70045;40.200;44.582;2023-07-08T06:03:10;85756.50;;;28.48;30.26
80682;BME280;70045;40.200;44.582;2023-07-08T06:05:37;85753.19;;;28.55;30.23
80682;BME280;70045;40.200;44.582;2023-07-08T06:08:03;85750.81;;;28.72;29.63
80682;BME280;70045;40.200;44.582;2023-07-08T06:10:42;85749.25;;;28.85;29.35
80682;BME280;70045;40.200;44.582;2023-07-08T06:13:08;85744.94;;;28.74;29.50
80682;BME280;70045;40.200;44.582;2023-07-08T06:15:33;85735.63;;;28.60;29.49
80682;BME280;70045;40.200;44.582;2023-07-08T06:17:59;85733.84;;;28.62;30.03
80682;BME280;70045;40.200;44.582;2023-07-08T06:20:24;85735.81;;;28.62;28.97
80682;BME280;70045;40.200;44.582;2023-07-08T06:22:59;85737.56;;;28.96;28.53
80682;BME280;70045;40.200;44.582;2023-07-08T06:25:25;85733.66;;;28.97;28.85
80682;BME280;70045;40.200;44.582;2023-07-08T06:27:50;85731.41;;;29.08;28.79
80682;BME280;70045;40.200;44.582;2023-07-08T06:30:16;85720.78;;;28.80;28.36
80682;BME280;70045;40.200;44.582;2023-07-08T06:32:41;85726.19;;;28.95;29.22
80682;BME280;70045;40.200;44.582;2023-07-08T06:35:16;85717.97;;;29.22;28.04
80682;BME280;70045;40.200;44.582;2023-07-08T06:37:41;85713.72;;;29.34;28.61
80682;BME280;70045;40.200;44.582;2023-07-08T06:40:07;85724.47;;;29.50;28.76
80682;BME280;70045;40.200;44.582;2023-07-08T06:42:33;85717.19;;;29.65;27.95
80682;BME280;70045;40.200;44.582;2023-07-08T06:44:58;85713.13;;;29.80;28.37
80682;BME280;70045;40.200;44.582;2023-07-08T06:47:33;85711.53;;;29.92;27.42
80682;BME280;70045;40.200;44.582;2023-07-08T06:49:58;85705.50;;;30.07;28.26
80682;BME280;70045;40.200;44.582;2023-07-08T06:52:23;85713.31;;;30.20;27.61
80682;BME280;70045;40.200;44.582;2023-07-08T06:54:49;85698.34;;;30.25;27.67
80682;BME280;70045;40.200;44.582;2023-07-08T06:57:14;85691.75;;;30.34;27.93
80682;BME280;70045;40.200;44.582;2023-07-08T06:59:49;85694.78;;;30.30;26.93
80682;BME280;70045;40.200;44.582;2023-07-08T07:02:14;85687.84;;;30.19;26.91
80682;BME280;70045;40.200;44.582;2023-07-08T07:04:39;85686.94;;;30.25;27.72
80682;BME280;70045;40.200;44.582;2023-07-08T07:07:05;85684.09;;;30.38;27.25
80682;BME280;70045;40.200;44.582;2023-07-08T07:09:30;85690.69;;;30.37;27.09
80682;BME280;70045;40.200;44.582;2023-07-08T07:12:06;85694.78;;;30.46;26.94
80682;BME280;70045;40.200;44.582;2023-07-08T07:14:32;85691.56;;;30.47;27.12
80682;BME280;70045;40.200;44.582;2023-07-08T07:16:57;85683.72;;;30.49;27.02
80682;BME280;70045;40.200;44.582;2023-07-08T07:19:23;85682.25;;;30.64;27.18
80682;BME280;70045;40.200;44.582;2023-07-08T07:21:48;85681.16;;;30.82;26.80
80682;BME280;70045;40.200;44.582;2023-07-08T07:24:23;85680.41;;;30.97;25.93
80682;BME280;70045;40.200;44.582;2023-07-08T07:26:48;85681.81;;;31.06;26.49
80682;BME280;70045;40.200;44.582;2023-07-08T07:29:16;85674.69;;;31.01;25.95
80682;BME280;70045;40.200;44.582;2023-07-08T07:31:41;85679.69;;;31.04;25.65
80682;BME280;70045;40.200;44.582;2023-07-08T07:34:07;85671.66;;;30.96;26.09
80682;BME280;70045;40.200;44.582;2023-07-08T07:36:42;85674.34;;;30.89;25.86
80682;BME280;70045;40.200;44.582;2023-07-08T07:39:07;85676.50;;;30.83;26.22
80682;BME280;70045;40.200;44.582;2023-07-08T07:41:32;85667.94;;;30.84;26.48
80682;BME280;70045;40.200;44.582;2023-07-08T07:43:58;85676.28;;;31.04;26.29
80682;BME280;70045;40.200;44.582;2023-07-08T07:46:23;85669.25;;;31.16;25.85
80682;BME280;70045;40.200;44.582;2023-07-08T07:48:54;85672.03;;;31.33;25.60
80682;BME280;70045;40.200;44.582;2023-07-08T07:51:20;85661.16;;;31.31;25.49
80682;BME280;70045;40.200;44.582;2023-07-08T07:53:45;85668.63;;;31.41;25.75
80682;BME280;70045;40.200;44.582;2023-07-08T07:56:11;85660.38;;;31.46;25.43
80682;BME280;70045;40.200;44.582;2023-07-08T07:58:36;85649.81;;;31.56;25.47
80682;BME280;70045;40.200;44.582;2023-07-08T08:01:11;85648.81;;;31.69;25.26
80682;BME280;70045;40.200;44.582;2023-07-08T08:03:36;85654.00;;;31.92;25.74
80682;BME280;70045;40.200;44.582;2023-07-08T08:06:02;85654.19;;;31.94;25.20
80682;BME280;70045;40.200;44.582;2023-07-08T08:08:27;85648.81;;;31.94;25.65
80682;BME280;70045;40.200;44.582;2023-07-08T08:10:52;85659.88;;;31.98;24.97
80682;BME280;70045;40.200;44.582;2023-07-08T08:13:27;85652.78;;;31.93;25.10
80682;BME280;70045;40.200;44.582;2023-07-08T08:15:57;85653.44;;;32.01;24.73
80682;BME280;70045;40.200;44.582;2023-07-08T08:18:22;85650.69;;;31.84;24.96
80682;BME280;70045;40.200;44.582;2023-07-08T08:20:50;85645.75;;;31.72;24.40
80682;BME280;70045;40.200;44.582;2023-07-08T08:23:16;85649.88;;;31.74;24.59
80682;BME280;70045;40.200;44.582;2023-07-08T08:25:51;85640.84;;;31.86;24.62
80682;BME280;70045;40.200;44.582;2023-07-08T08:28:16;85644.09;;;32.02;24.90
80682;BME280;70045;40.200;44.582;2023-07-08T08:30:47;85634.63;;;32.09;24.61
80682;BME280;70045;40.200;44.582;2023-07-08T08:33:12;85639.19;;;32.16;25.01
80682;BME280;70045;40.200;44.582;2023-07-08T08:35:38;85635.84;;;32.33;24.76
80682;BME280;70045;40.200;44.582;2023-07-08T08:38:13;85633.16;;;32.51;24.19
80682;BME280;70045;40.200;44.582;2023-07-08T08:40:41;85633.28;;;32.60;23.90
80682;BME280;70045;40.200;44.582;2023-07-08T08:43:16;85619.66;;;32.58;24.30
80682;BME280;70045;40.200;44.582;2023-07-08T08:48:27;85630.50;;;32.86;23.69
80682;BME280;70045;40.200;44.582;2023-07-08T08:51:15;85620.69;;;32.98;23.37
80682;BME280;70045;40.200;44.582;2023-07-08T08:53:41;85622.28;;;33.18;23.60
80682;BME280;70045;40.200;44.582;2023-07-08T08:56:17;85628.84;;;33.35;21.95
80682;BME280;70045;40.200;44.582;2023-07-08T09:01:37;85612.25;;;33.46;22.43
80682;BME280;70045;40.200;44.582;2023-07-08T09:04:08;85606.88;;;33.73;22.62
80682;BME280;70045;40.200;44.582;2023-07-08T09:06:38;85603.50;;;33.55;21.77
80682;BME280;70045;40.200;44.582;2023-07-08T09:09:21;85598.97;;;33.75;21.50
80682;BME280;70045;40.200;44.582;2023-07-08T09:12:03;85578.38;;;33.98;21.35
80682;BME280;70045;40.200;44.582;2023-07-08T09:14:33;85593.03;;;34.33;21.31
80682;BME280;70045;40.200;44.582;2023-07-08T09:17:27;85587.41;;;34.59;20.13
80682;BME280;70045;40.200;44.582;2023-07-08T09:20:22;85590.94;;;35.10;20.46
80682;BME280;70045;40.200;44.582;2023-07-08T09:23:03;85587.91;;;35.55;19.68
80682;BME280;70045;40.200;44.582;2023-07-08T09:26:07;85583.72;;;36.14;18.83
80682;BME280;70045;40.200;44.582;2023-07-08T09:28:41;85581.09;;;36.79;18.59
80682;BME280;70045;40.200;44.582;2023-07-08T09:31:26;85583.81;;;37.46;17.50
80682;BME280;70045;40.200;44.582;2023-07-08T09:33:53;85568.25;;;37.80;17.99
80682;BME280;70045;40.200;44.582;2023-07-08T09:36:24;85555.44;;;38.16;16.17
80682;BME280;70045;40.200;44.582;2023-07-08T09:38:50;85568.97;;;38.51;16.50
80682;BME280;70045;40.200;44.582;2023-07-08T09:41:34;85557.09;;;38.94;15.02
80682;BME280;70045;40.200;44.582;2023-07-08T09:44:06;85561.59;;;39.52;15.29
80682;BME280;70045;40.200;44.582;2023-07-08T09:46:36;85553.34;;;39.76;14.62
80682;BME280;70045;40.200;44.582;2023-07-08T09:49:20;85547.72;;;39.86;14.21
80682;BME280;70045;40.200;44.582;2023-07-08T09:51:55;85543.88;;;40.58;14.75
80682;BME280;70045;40.200;44.582;2023-07-08T09:54:22;85535.28;;;40.78;13.67
80682;BME280;70045;40.200;44.582;2023-07-08T09:56:59;85531.50;;;41.13;12.73
80682;BME280;70045;40.200;44.582;2023-07-08T09:59:36;85536.81;;;41.25;12.27
80682;BME280;70045;40.200;44.582;2023-07-08T10:02:25;85532.03;;;41.69;12.75
80682;BME280;70045;40.200;44.582;2023-07-08T10:04:57;85525.53;;;41.76;12.02
80682;BME280;70045;40.200;44.582;2023-07-08T10:07:23;85518.69;;;41.91;12.31
80682;BME280;70045;40.200;44.582;2023-07-08T10:09:52;85518.00;;;42.38;12.60
80682;BME280;70045;40.200;44.582;2023-07-08T10:12:30;85518.69;;;42.55;12.17
80682;BME280;70045;40.200;44.582;2023-07-08T10:15:03;85512.78;;;42.44;10.78
80682;BME280;70045;40.200;44.582;2023-07-08T10:17:30;85517.34;;;42.89;11.92
80682;BME280;70045;40.200;44.582;2023-07-08T10:19:56;85515.53;;;42.94;11.76
80682;BME280;70045;40.200;44.582;2023-07-08T10:28:13;85494.19;;;43.06;11.80
80682;BME280;70045;40.200;44.582;2023-07-08T10:39:21;85466.84;;;42.70;11.13
80682;BME280;70045;40.200;44.582;2023-07-08T10:53:09;85454.75;;;39.85;13.14
80682;BME280;70045;40.200;44.582;2023-07-08T10:55:55;85450.16;;;40.02;12.81
80682;BME280;70045;40.200;44.582;2023-07-08T11:10:00;85433.47;;;40.65;12.79
80682;BME280;70045;40.200;44.582;2023-07-08T11:12:32;85435.75;;;39.71;13.27
80682;BME280;70045;40.200;44.582;2023-07-08T11:15:06;85425.31;;;39.12;13.14
80682;BME280;70045;40.200;44.582;2023-07-08T11:18:00;85411.06;;;38.60;14.02
80682;BME280;70045;40.200;44.582;2023-07-08T11:25:34;85428.28;;;37.92;14.62
80682;BME280;70045;40.200;44.582;2023-07-08T11:28:17;85424.78;;;37.54;14.52
80682;BME280;70045;40.200;44.582;2023-07-08T11:30:47;85428.06;;;37.17;15.37
80682;BME280;70045;40.200;44.582;2023-07-08T11:33:17;85425.25;;;37.27;15.60
80682;BME280;70045;40.200;44.582;2023-07-08T11:35:47;85425.44;;;38.02;14.43
80682;BME280;70045;40.200;44.582;2023-07-08T11:38:25;85417.22;;;38.75;14.01
80682;BME280;70045;40.200;44.582;2023-07-08T11:40:54;85418.72;;;38.52;14.09
80682;BME280;70045;40.200;44.582;2023-07-08T11:43:22;85413.66;;;38.21;14.35
80682;BME280;70045;40.200;44.582;2023-07-08T11:45:49;85407.31;;;39.59;13.42
80682;BME280;70045;40.200;44.582;2023-07-08T11:48:19;85399.38;;;41.37;11.96
80682;BME280;70045;40.200;44.582;2023-07-08T11:50:56;85395.28;;;42.88;11.15
80682;BME280;70045;40.200;44.582;2023-07-08T12:04:15;85383.16;;;41.24;11.92
80682;BME280;70045;40.200;44.582;2023-07-08T12:06:47;85373.53;;;39.89;13.08
80682;BME280;70045;40.200;44.582;2023-07-08T12:09:26;85375.75;;;39.24;14.36
80682;BME280;70045;40.200;44.582;2023-07-08T12:12:05;85371.13;;;38.61;14.68
80682;BME280;70045;40.200;44.582;2023-07-08T12:14:33;85354.72;;;38.19;15.18
80682;BME280;70045;40.200;44.582;2023-07-08T12:16:58;85359.78;;;38.01;15.83
80682;BME280;70045;40.200;44.582;2023-07-08T12:19:27;85350.25;;;37.75;16.72
80682;BME280;70045;40.200;44.582;2023-07-08T12:21:53;85356.97;;;39.28;15.41
80682;BME280;70045;40.200;44.582;2023-07-08T12:24:22;85357.91;;;39.74;15.95
80682;BME280;70045;40.200;44.582;2023-07-08T12:26:47;85357.28;;;40.47;15.44
80682;BME280;70045;40.200;44.582;2023-07-08T12:29:13;85332.78;;;41.38;15.79
80682;BME280;70045;40.200;44.582;2023-07-08T12:31:40;85343.28;;;41.78;15.33
80682;BME280;70045;40.200;44.582;2023-07-08T12:34:10;85340.84;;;41.68;15.83
80682;BME280;70045;40.200;44.582;2023-07-08T12:36:46;85335.94;;;41.33;16.04
80682;BME280;70045;40.200;44.582;2023-07-08T12:39:14;85339.13;;;41.27;16.03
80682;BME280;70045;40.200;44.582;2023-07-08T12:41:40;85331.53;;;41.73;15.48
80682;BME280;70045;40.200;44.582;2023-07-08T12:44:23;85320.91;;;41.16;15.90
80682;BME280;70045;40.200;44.582;2023-07-08T12:47:01;85326.34;;;40.84;16.17
80682;BME280;70045;40.200;44.582;2023-07-08T12:49:27;85338.75;;;40.73;15.55
80682;BME280;70045;40.200;44.582;2023-07-08T12:51:52;85338.38;;;41.27;15.02
80682;BME280;70045;40.200;44.582;2023-07-08T12:54:17;85333.47;;;41.71;15.61
80682;BME280;70045;40.200;44.582;2023-07-08T12:56:45;85327.94;;;42.55;14.47
80682;BME280;70045;40.200;44.582;2023-07-08T12:59:22;85332.72;;;42.20;14.61
80682;BME280;70045;40.200;44.582;2023-07-08T13:01:49;85335.72;;;40.97;15.80
80682;BME280;70045;40.200;44.582;2023-07-08T13:04:15;85314.34;;;41.21;16.04
80682;BME280;70045;40.200;44.582;2023-07-08T13:06:44;85319.25;;;41.40;15.85
80682;BME280;70045;40.200;44.582;2023-07-08T13:09:46;85309.28;;;41.29;16.26
80682;BME280;70045;40.200;44.582;2023-07-08T13:12:16;85303.22;;;41.15;15.83
80682;BME280;70045;40.200;44.582;2023-07-08T13:14:44;85298.75;;;41.37;15.14
80682;BME280;70045;40.200;44.582;2023-07-08T13:17:13;85300.19;;;40.77;16.29
80682;BME280;70045;40.200;44.582;2023-07-08T13:19:47;85299.31;;;39.13;18.03
80682;BME280;70045;40.200;44.582;2023-07-08T13:22:18;85297.81;;;39.66;17.70
80682;BME280;70045;40.200;44.582;2023-07-08T13:24:45;85299.09;;;39.92;17.39
80682;BME280;70045;40.200;44.582;2023-07-08T13:27:37;85265.25;;;40.09;17.50
80682;BME280;70045;40.200;44.582;2023-07-08T13:30:20;85277.72;;;39.71;18.12
80682;BME280;70045;40.200;44.582;2023-07-08T13:32:51;85279.44;;;39.36;18.35
80682;BME280;70045;40.200;44.582;2023-07-08T13:35:37;85282.53;;;39.45;17.79
80682;BME280;70045;40.200;44.582;2023-07-08T13:38:03;85279.66;;;39.84;17.11
80682;BME280;70045;40.200;44.582;2023-07-08T13:40:42;85283.47;;;40.07;16.77
80682;BME280;70045;40.200;44.582;2023-07-08T13:43:09;85299.81;;;39.93;17.70
80682;BME280;70045;40.200;44.582;2023-07-08T13:45:35;85302.53;;;39.79;18.21
80682;BME280;70045;40.200;44.582;2023-07-08T13:56:13;85302.06;;;38.48;19.61
80682;BME280;70045;40.200;44.582;2023-07-08T13:58:44;85300.47;;;38.17;20.26
80682;BME280;70045;40.200;44.582;2023-07-08T14:01:24;85321.41;;;38.17;20.05
80682;BME280;70045;40.200;44.582;2023-07-08T14:03:53;85316.34;;;37.85;20.80
80682;BME280;70045;40.200;44.582;2023-07-08T14:06:25;85321.94;;;37.40;21.94
80682;BME280;70045;40.200;44.582;2023-07-08T14:08:54;85323.00;;;36.88;22.67
80682;BME280;70045;40.200;44.582;2023-07-08T14:11:28;85332.09;;;36.35;22.79
80682;BME280;70045;40.200;44.582;2023-07-08T14:13:54;85341.03;;;36.62;22.94
80682;BME280;70045;40.200;44.582;2023-07-08T14:16:28;85342.06;;;36.11;23.37
80682;BME280;70045;40.200;44.582;2023-07-08T14:18:59;85347.44;;;35.78;24.26
80682;BME280;70045;40.200;44.582;2023-07-08T14:21:26;85348.53;;;35.85;24.31
80682;BME280;70045;40.200;44.582;2023-07-08T14:24:01;85320.53;;;34.94;25.30
80682;BME280;70045;40.200;44.582;2023-07-08T14:26:28;85339.16;;;34.80;25.71
80682;BME280;70045;40.200;44.582;2023-07-08T14:28:54;85307.56;;;34.39;26.01
80682;BME280;70045;40.200;44.582;2023-07-08T14:31:22;85314.28;;;33.89;26.38